Stryker, Montana
Current Conditions -  °F | °C
As of 5:55 AM on Friday 24 Oct 2014 (Local Time) from KGPI Reporting Station
Clear Clear  
Wind Chill: 41°   Ceiling: Unl
Heat Index: 46°   Visibility: 10mi
Dew Point: 34°   Wind: 9mph
Humidity: 63%   Direction: 210°SSW
Pressure: 30.02"   Gusts: NA
Location:  48.67°N, 114.78°W
Report Text: KGPI 241155Z AUTO 21008KT 10SM CLR 08/01 A3002 RMK AO2 SLP173 70037 T00780011 10089 20067 51012
Loading
Personal Weather Stations






























Interactive Weather Map
Tropical Storm Tracking
New forecast layout! Learn more

10-Day Weather Forecast

Advertisements
Track Severe Weather on mobile